sensor_id;sensor_type;location;lat;lon;timestamp;pressure;altitude;pressure_sealevel;temperature;humidity
10482;BME280;5288;42.334;23.876;2022-12-29T00:02:13;56460.50;;;-140.56;71.19
10482;BME280;5288;42.334;23.876;2022-12-29T00:04:40;56478.28;;;-140.56;71.30
10482;BME280;5288;42.334;23.876;2022-12-29T00:07:08;56454.59;;;-140.56;71.27
10482;BME280;5288;42.334;23.876;2022-12-29T00:09:36;56462.47;;;-140.56;71.46
10482;BME280;5288;42.334;23.876;2022-12-29T00:12:03;56464.47;;;-140.56;71.58
10482;BME280;5288;42.334;23.876;2022-12-29T00:14:31;56460.50;;;-140.56;71.53
10482;BME280;5288;42.334;23.876;2022-12-29T00:17:15;56498.06;;;-140.56;71.63
10482;BME280;5288;42.334;23.876;2022-12-29T00:19:42;56448.66;;;-140.56;71.81
10482;BME280;5288;42.334;23.876;2022-12-29T00:22:28;56472.38;;;-140.56;71.45
10482;BME280;5288;42.334;23.876;2022-12-29T00:25:12;56462.47;;;-140.56;71.21
10482;BME280;5288;42.334;23.876;2022-12-29T00:27:57;56490.16;;;-140.56;71.10
10482;BME280;5288;42.334;23.876;2022-12-29T00:30:41;56478.28;;;-140.56;71.15
10482;BME280;5288;42.334;23.876;2022-12-29T00:33:28;56474.34;;;-140.56;70.71
10482;BME280;5288;42.334;23.876;2022-12-29T00:36:17;56488.19;;;-140.56;71.21
10482;BME280;5288;42.334;23.876;2022-12-29T00:38:48;56468.41;;;-140.56;70.68
10482;BME280;5288;42.334;23.876;2022-12-29T00:41:34;56490.16;;;-140.56;70.72
10482;BME280;5288;42.334;23.876;2022-12-29T00:44:18;56490.16;;;-140.56;70.83
10482;BME280;5288;42.334;23.876;2022-12-29T00:46:45;56492.13;;;-140.56;70.63
10482;BME280;5288;42.334;23.876;2022-12-29T00:49:13;56456.56;;;-140.56;71.11
10482;BME280;5288;42.334;23.876;2022-12-29T00:51:59;56498.06;;;-140.56;70.78
10482;BME280;5288;42.334;23.876;2022-12-29T00:54:28;56466.44;;;-140.56;70.84
10482;BME280;5288;42.334;23.876;2022-12-29T00:56:55;56521.78;;;-140.56;70.81
10482;BME280;5288;42.334;23.876;2022-12-29T00:59:22;56476.31;;;-140.56;70.70
10482;BME280;5288;42.334;23.876;2022-12-29T01:01:51;56486.19;;;-140.56;70.41
10482;BME280;5288;42.334;23.876;2022-12-29T01:04:19;56490.16;;;-140.56;70.48
10482;BME280;5288;42.334;23.876;2022-12-29T01:06:46;56466.44;;;-140.56;70.41
10482;BME280;5288;42.334;23.876;2022-12-29T01:09:13;56509.91;;;-140.56;70.67
10482;BME280;5288;42.334;23.876;2022-12-29T01:11:59;56466.44;;;-140.56;70.47
10482;BME280;5288;42.334;23.876;2022-12-29T01:14:27;56502.00;;;-140.56;70.35
10482;BME280;5288;42.334;23.876;2022-12-29T01:16:54;56464.47;;;-140.56;70.17
10482;BME280;5288;42.334;23.876;2022-12-29T01:19:22;56472.38;;;-140.56;70.13
10482;BME280;5288;42.334;23.876;2022-12-29T01:21:49;56511.91;;;-140.56;70.25
10482;BME280;5288;42.334;23.876;2022-12-29T01:24:17;56488.19;;;-140.56;70.43
10482;BME280;5288;42.334;23.876;2022-12-29T01:26:44;56480.28;;;-140.56;70.66
10482;BME280;5288;42.334;23.876;2022-12-29T01:29:13;56452.59;;;-140.56;70.40
10482;BME280;5288;42.334;23.876;2022-12-29T01:31:40;56490.16;;;-140.56;70.54
10482;BME280;5288;42.334;23.876;2022-12-29T01:34:07;56484.22;;;-140.56;70.44
10482;BME280;5288;42.334;23.876;2022-12-29T01:36:34;56446.69;;;-140.56;70.20
10482;BME280;5288;42.334;23.876;2022-12-29T01:39:01;56474.34;;;-140.56;70.02
10482;BME280;5288;42.334;23.876;2022-12-29T01:41:28;56446.69;;;-140.56;70.09
10482;BME280;5288;42.334;23.876;2022-12-29T01:43:57;56436.78;;;-140.56;69.68
10482;BME280;5288;42.334;23.876;2022-12-29T01:46:29;56462.47;;;-140.56;69.63
10482;BME280;5288;42.334;23.876;2022-12-29T01:48:59;56496.09;;;-140.56;70.07
10482;BME280;5288;42.334;23.876;2022-12-29T01:51:31;56458.53;;;-140.56;70.19
10482;BME280;5288;42.334;23.876;2022-12-29T01:54:01;56488.19;;;-140.56;70.04
10482;BME280;5288;42.334;23.876;2022-12-29T01:56:30;56456.56;;;-140.56;70.13
10482;BME280;5288;42.334;23.876;2022-12-29T01:59:02;56464.47;;;-140.56;69.78
10482;BME280;5288;42.334;23.876;2022-12-29T02:01:32;56492.13;;;-140.56;69.49
10482;BME280;5288;42.334;23.876;2022-12-29T02:03:59;56472.38;;;-140.56;69.48
10482;BME280;5288;42.334;23.876;2022-12-29T02:06:29;56502.00;;;-140.56;69.79
10482;BME280;5288;42.334;23.876;2022-12-29T02:08:58;56472.38;;;-140.56;69.90
10482;BME280;5288;42.334;23.876;2022-12-29T02:11:26;56480.28;;;-140.56;70.09
10482;BME280;5288;42.334;23.876;2022-12-29T02:13:56;56478.28;;;-140.56;70.21
10482;BME280;5288;42.334;23.876;2022-12-29T02:16:35;56484.22;;;-140.56;70.31
10482;BME280;5288;42.334;23.876;2022-12-29T02:19:29;56492.13;;;-140.56;70.43
10482;BME280;5288;42.334;23.876;2022-12-29T02:22:12;56488.19;;;-140.56;70.33
10482;BME280;5288;42.334;23.876;2022-12-29T02:25:01;56452.59;;;-140.56;70.53
10482;BME280;5288;42.334;23.876;2022-12-29T02:28:08;56464.47;;;-140.56;70.24
10482;BME280;5288;42.334;23.876;2022-12-29T02:30:55;56460.50;;;-140.56;70.31
10482;BME280;5288;42.334;23.876;2022-12-29T02:33:34;56456.56;;;-140.56;70.63
10482;BME280;5288;42.334;23.876;2022-12-29T02:36:08;56466.44;;;-140.56;70.77
10482;BME280;5288;42.334;23.876;2022-12-29T02:38:54;56464.47;;;-140.56;70.73
10482;BME280;5288;42.334;23.876;2022-12-29T02:41:31;56478.28;;;-140.56;70.31
10482;BME280;5288;42.334;23.876;2022-12-29T02:44:03;56456.56;;;-140.56;70.23
10482;BME280;5288;42.334;23.876;2022-12-29T02:46:36;56458.53;;;-140.56;70.35
10482;BME280;5288;42.334;23.876;2022-12-29T02:49:09;56460.50;;;-140.56;70.72
10482;BME280;5288;42.334;23.876;2022-12-29T02:51:44;56505.97;;;-140.56;70.88
10482;BME280;5288;42.334;23.876;2022-12-29T02:54:13;56498.06;;;-140.56;71.05
10482;BME280;5288;42.334;23.876;2022-12-29T02:57:00;56454.59;;;-140.56;70.65
10482;BME280;5288;42.334;23.876;2022-12-29T02:59:27;56519.81;;;-140.56;70.93
10482;BME280;5288;42.334;23.876;2022-12-29T03:02:20;56468.41;;;-140.56;71.26
10482;BME280;5288;42.334;23.876;2022-12-29T03:05:14;56456.56;;;-140.56;71.49
10482;BME280;5288;42.334;23.876;2022-12-29T03:07:47;56492.13;;;-140.56;71.57
10482;BME280;5288;42.334;23.876;2022-12-29T03:13:13;56474.34;;;-140.56;71.43
10482;BME280;5288;42.334;23.876;2022-12-29T03:16:06;56458.53;;;-140.56;71.23
10482;BME280;5288;42.334;23.876;2022-12-29T03:18:45;56434.81;;;-140.56;71.01
10482;BME280;5288;42.334;23.876;2022-12-29T03:21:17;56456.56;;;-140.56;70.63
10482;BME280;5288;42.334;23.876;2022-12-29T03:23:48;56498.06;;;-140.56;70.86
10482;BME280;5288;42.334;23.876;2022-12-29T03:26:17;56464.47;;;-140.56;71.33
10482;BME280;5288;42.334;23.876;2022-12-29T03:28:48;56462.47;;;-140.56;71.56
10482;BME280;5288;42.334;23.876;2022-12-29T03:31:18;56460.50;;;-140.56;71.21
10482;BME280;5288;42.334;23.876;2022-12-29T03:33:47;56466.44;;;-140.56;71.61
10482;BME280;5288;42.334;23.876;2022-12-29T03:36:18;56484.22;;;-140.56;71.76
10482;BME280;5288;42.334;23.876;2022-12-29T03:38:50;56492.13;;;-140.56;71.88
10482;BME280;5288;42.334;23.876;2022-12-29T03:41:24;56488.19;;;-140.56;72.05
10482;BME280;5288;42.334;23.876;2022-12-29T03:43:52;56470.38;;;-140.56;71.71
10482;BME280;5288;42.334;23.876;2022-12-29T03:46:19;56480.28;;;-140.56;71.86
10482;BME280;5288;42.334;23.876;2022-12-29T03:48:48;56496.09;;;-140.56;72.18
10482;BME280;5288;42.334;23.876;2022-12-29T03:51:15;56492.13;;;-140.56;72.25
10482;BME280;5288;42.334;23.876;2022-12-29T03:53:42;56500.03;;;-140.56;72.07
10482;BME280;5288;42.334;23.876;2022-12-29T03:56:08;56452.59;;;-140.56;71.78
10482;BME280;5288;42.334;23.876;2022-12-29T03:58:35;56480.28;;;-140.56;71.93
10482;BME280;5288;42.334;23.876;2022-12-29T04:01:02;56505.97;;;-140.56;71.94
10482;BME280;5288;42.334;23.876;2022-12-29T04:03:29;56504.00;;;-140.56;71.43
10482;BME280;5288;42.334;23.876;2022-12-29T04:05:57;56486.19;;;-140.56;71.36
10482;BME280;5288;42.334;23.876;2022-12-29T04:08:24;56442.72;;;-140.56;71.33
10482;BME280;5288;42.334;23.876;2022-12-29T04:10:51;56507.94;;;-140.56;71.53
10482;BME280;5288;42.334;23.876;2022-12-29T04:13:18;56466.44;;;-140.56;71.43
10482;BME280;5288;42.334;23.876;2022-12-29T04:15:45;56492.13;;;-140.56;71.96
10482;BME280;5288;42.334;23.876;2022-12-29T04:18:12;56484.22;;;-140.56;72.23
10482;BME280;5288;42.334;23.876;2022-12-29T04:20:39;56456.56;;;-140.56;72.00
10482;BME280;5288;42.334;23.876;2022-12-29T04:23:25;56466.44;;;-140.56;71.85
10482;BME280;5288;42.334;23.876;2022-12-29T04:25:52;56460.50;;;-140.56;71.93
10482;BME280;5288;42.334;23.876;2022-12-29T04:28:19;56484.22;;;-140.56;71.79
10482;BME280;5288;42.334;23.876;2022-12-29T04:30:46;56452.59;;;-140.56;71.65
10482;BME280;5288;42.334;23.876;2022-12-29T04:33:13;56456.56;;;-140.56;71.75
10482;BME280;5288;42.334;23.876;2022-12-29T04:35:41;56460.50;;;-140.56;71.43
10482;BME280;5288;42.334;23.876;2022-12-29T04:38:08;56468.41;;;-140.56;71.60
10482;BME280;5288;42.334;23.876;2022-12-29T04:40:38;56496.09;;;-140.56;71.68
10482;BME280;5288;42.334;23.876;2022-12-29T04:43:05;56486.19;;;-140.56;71.54
10482;BME280;5288;42.334;23.876;2022-12-29T04:45:32;56464.47;;;-140.56;72.28
10482;BME280;5288;42.334;23.876;2022-12-29T04:47:59;56468.41;;;-140.56;72.27
10482;BME280;5288;42.334;23.876;2022-12-29T04:50:26;56472.38;;;-140.56;71.85
10482;BME280;5288;42.334;23.876;2022-12-29T04:52:53;56444.69;;;-140.56;71.59
10482;BME280;5288;42.334;23.876;2022-12-29T04:55:20;56488.19;;;-140.56;71.62
10482;BME280;5288;42.334;23.876;2022-12-29T04:57:48;56452.59;;;-140.56;72.00
10482;BME280;5288;42.334;23.876;2022-12-29T05:00:15;56454.59;;;-140.56;71.54
10482;BME280;5288;42.334;23.876;2022-12-29T05:02:42;56488.19;;;-140.56;71.64
10482;BME280;5288;42.334;23.876;2022-12-29T05:05:09;56462.47;;;-140.56;71.60
10482;BME280;5288;42.334;23.876;2022-12-29T05:07:36;56498.06;;;-140.56;71.63
10482;BME280;5288;42.334;23.876;2022-12-29T05:10:04;56470.38;;;-140.56;71.67
10482;BME280;5288;42.334;23.876;2022-12-29T05:12:32;56472.38;;;-140.56;71.56
10482;BME280;5288;42.334;23.876;2022-12-29T05:15:00;56498.06;;;-140.56;71.86
10482;BME280;5288;42.334;23.876;2022-12-29T05:20:42;56505.97;;;-140.56;72.30
10482;BME280;5288;42.334;23.876;2022-12-29T05:23:09;56456.56;;;-140.56;72.50
10482;BME280;5288;42.334;23.876;2022-12-29T05:25:36;56468.41;;;-140.56;72.56
10482;BME280;5288;42.334;23.876;2022-12-29T05:28:03;56466.44;;;-140.56;72.68
10482;BME280;5288;42.334;23.876;2022-12-29T05:30:31;56474.34;;;-140.56;72.13
10482;BME280;5288;42.334;23.876;2022-12-29T05:32:58;56496.09;;;-140.56;71.95
10482;BME280;5288;42.334;23.876;2022-12-29T05:35:25;56458.53;;;-140.56;72.25
10482;BME280;5288;42.334;23.876;2022-12-29T05:37:52;56480.28;;;-140.56;72.06
10482;BME280;5288;42.334;23.876;2022-12-29T05:40:19;56440.75;;;-140.56;71.99
10482;BME280;5288;42.334;23.876;2022-12-29T05:42:46;56426.91;;;-140.56;71.85
10482;BME280;5288;42.334;23.876;2022-12-29T05:45:12;56452.59;;;-140.56;71.72
10482;BME280;5288;42.334;23.876;2022-12-29T05:47:41;56466.44;;;-140.56;71.94
10482;BME280;5288;42.334;23.876;2022-12-29T05:50:08;56444.69;;;-140.56;72.04
10482;BME280;5288;42.334;23.876;2022-12-29T05:52:44;56476.31;;;-140.56;72.18
10482;BME280;5288;42.334;23.876;2022-12-29T05:55:11;56476.31;;;-140.56;72.53
10482;BME280;5288;42.334;23.876;2022-12-29T05:57:38;56500.03;;;-140.56;72.11
10482;BME280;5288;42.334;23.876;2022-12-29T06:00:06;56466.44;;;-140.56;72.36
10482;BME280;5288;42.334;23.876;2022-12-29T06:02:34;56456.56;;;-140.56;72.68
10482;BME280;5288;42.334;23.876;2022-12-29T06:05:02;56488.19;;;-140.56;72.62
10482;BME280;5288;42.334;23.876;2022-12-29T06:07:29;56488.19;;;-140.56;72.48
10482;BME280;5288;42.334;23.876;2022-12-29T06:09:56;56440.75;;;-140.56;71.82
10482;BME280;5288;42.334;23.876;2022-12-29T06:12:23;56472.38;;;-140.56;71.55
10482;BME280;5288;42.334;23.876;2022-12-29T06:14:50;56450.63;;;-140.56;71.64
10482;BME280;5288;42.334;23.876;2022-12-29T06:17:19;56436.78;;;-140.56;71.15
10482;BME280;5288;42.334;23.876;2022-12-29T06:19:46;56480.28;;;-140.56;71.23
10482;BME280;5288;42.334;23.876;2022-12-29T06:22:14;56472.38;;;-140.56;71.30
10482;BME280;5288;42.334;23.876;2022-12-29T06:24:41;56454.59;;;-140.56;71.10
10482;BME280;5288;42.334;23.876;2022-12-29T06:27:08;56472.38;;;-140.56;71.29
10482;BME280;5288;42.334;23.876;2022-12-29T06:29:35;56480.28;;;-140.56;71.12
10482;BME280;5288;42.334;23.876;2022-12-29T06:32:05;56460.50;;;-140.56;71.43
10482;BME280;5288;42.334;23.876;2022-12-29T06:34:32;56482.25;;;-140.56;71.21
10482;BME280;5288;42.334;23.876;2022-12-29T06:36:59;56466.44;;;-140.56;71.46
10482;BME280;5288;42.334;23.876;2022-12-29T06:39:28;56464.47;;;-140.56;71.57
10482;BME280;5288;42.334;23.876;2022-12-29T06:41:54;56494.09;;;-140.56;71.80
10482;BME280;5288;42.334;23.876;2022-12-29T06:44:22;56488.19;;;-140.56;71.88
10482;BME280;5288;42.334;23.876;2022-12-29T06:46:49;56504.00;;;-140.56;71.73
10482;BME280;5288;42.334;23.876;2022-12-29T06:49:16;56502.00;;;-140.56;72.06
10482;BME280;5288;42.334;23.876;2022-12-29T06:51:43;56464.47;;;-140.56;71.83
10482;BME280;5288;42.334;23.876;2022-12-29T06:54:11;56446.69;;;-140.56;71.58
10482;BME280;5288;42.334;23.876;2022-12-29T06:56:39;56472.38;;;-140.56;71.23
10482;BME280;5288;42.334;23.876;2022-12-29T06:59:06;56456.56;;;-140.56;71.31
10482;BME280;5288;42.334;23.876;2022-12-29T07:01:34;56458.53;;;-140.56;72.30
10482;BME280;5288;42.334;23.876;2022-12-29T07:04:01;56446.69;;;-140.56;72.01
10482;BME280;5288;42.334;23.876;2022-12-29T07:06:28;56484.22;;;-140.56;71.67
10482;BME280;5288;42.334;23.876;2022-12-29T07:08:55;56504.00;;;-140.56;71.37
10482;BME280;5288;42.334;23.876;2022-12-29T07:11:23;56488.19;;;-140.56;71.29
10482;BME280;5288;42.334;23.876;2022-12-29T07:13:51;56464.47;;;-140.56;71.33
10482;BME280;5288;42.334;23.876;2022-12-29T07:16:18;56454.59;;;-140.56;72.32
10482;BME280;5288;42.334;23.876;2022-12-29T07:18:45;56482.25;;;-140.56;72.54
10482;BME280;5288;42.334;23.876;2022-12-29T07:21:12;56478.28;;;-140.56;72.48
10482;BME280;5288;42.334;23.876;2022-12-29T07:23:39;56496.09;;;-140.56;72.33
10482;BME280;5288;42.334;23.876;2022-12-29T07:26:08;56452.59;;;-140.56;72.86
10482;BME280;5288;42.334;23.876;2022-12-29T07:28:36;56478.28;;;-140.56;72.83
10482;BME280;5288;42.334;23.876;2022-12-29T07:31:05;56484.22;;;-140.56;72.61
10482;BME280;5288;42.334;23.876;2022-12-29T07:33:33;56488.19;;;-140.56;72.28
10482;BME280;5288;42.334;23.876;2022-12-29T07:36:00;56482.25;;;-140.56;72.18
10482;BME280;5288;42.334;23.876;2022-12-29T07:38:27;56470.38;;;-140.56;71.85
10482;BME280;5288;42.334;23.876;2022-12-29T07:40:57;56460.50;;;-140.56;73.03
10482;BME280;5288;42.334;23.876;2022-12-29T07:43:24;56505.97;;;-140.56;71.95
10482;BME280;5288;42.334;23.876;2022-12-29T07:45:51;56486.19;;;-140.56;70.69
10482;BME280;5288;42.334;23.876;2022-12-29T07:48:19;56462.47;;;-140.56;70.44
10482;BME280;5288;42.334;23.876;2022-12-29T07:50:47;56452.59;;;-140.56;70.27
10482;BME280;5288;42.334;23.876;2022-12-29T07:53:14;56482.25;;;-140.56;70.42
10482;BME280;5288;42.334;23.876;2022-12-29T07:55:41;56484.22;;;-140.56;70.40
10482;BME280;5288;42.334;23.876;2022-12-29T07:58:08;56478.28;;;-140.56;70.52
10482;BME280;5288;42.334;23.876;2022-12-29T08:00:35;56476.31;;;-140.56;71.09
10482;BME280;5288;42.334;23.876;2022-12-29T08:03:03;56468.41;;;-140.56;71.42
10482;BME280;5288;42.334;23.876;2022-12-29T08:05:32;56466.44;;;-140.56;72.50
10482;BME280;5288;42.334;23.876;2022-12-29T08:08:00;56488.19;;;-140.56;72.79
10482;BME280;5288;42.334;23.876;2022-12-29T08:10:27;56468.41;;;-140.56;72.56
10482;BME280;5288;42.334;23.876;2022-12-29T08:13:00;56458.53;;;-140.56;72.12
10482;BME280;5288;42.334;23.876;2022-12-29T08:15:33;56476.31;;;-140.56;71.16
10482;BME280;5288;42.334;23.876;2022-12-29T08:18:00;56504.00;;;-140.56;71.60
10482;BME280;5288;42.334;23.876;2022-12-29T08:20:27;56444.69;;;-140.56;71.96
10482;BME280;5288;42.334;23.876;2022-12-29T08:22:56;56452.59;;;-140.56;71.80
10482;BME280;5288;42.334;23.876;2022-12-29T08:25:23;56456.56;;;-140.56;72.23
10482;BME280;5288;42.334;23.876;2022-12-29T08:27:50;56460.50;;;-140.56;71.83
10482;BME280;5288;42.334;23.876;2022-12-29T08:30:17;56490.16;;;-140.56;71.94
10482;BME280;5288;42.334;23.876;2022-12-29T08:32:44;56452.59;;;-140.56;71.60
10482;BME280;5288;42.334;23.876;2022-12-29T08:35:11;56472.38;;;-140.56;71.15
10482;BME280;5288;42.334;23.876;2022-12-29T08:37:38;56444.69;;;-140.56;70.81
10482;BME280;5288;42.334;23.876;2022-12-29T08:40:08;56454.59;;;-140.56;70.43
10482;BME280;5288;42.334;23.876;2022-12-29T08:42:36;56444.69;;;-140.56;70.19
10482;BME280;5288;42.334;23.876;2022-12-29T08:45:04;56474.34;;;-140.56;69.86
10482;BME280;5288;42.334;23.876;2022-12-29T08:47:31;56440.75;;;-140.56;69.58
10482;BME280;5288;42.334;23.876;2022-12-29T08:49:58;56460.50;;;-140.56;69.36
10482;BME280;5288;42.334;23.876;2022-12-29T08:52:25;56488.19;;;-140.56;69.18
10482;BME280;5288;42.334;23.876;2022-12-29T08:54:58;56496.09;;;-140.56;68.78
10482;BME280;5288;42.334;23.876;2022-12-29T08:57:28;56450.63;;;-140.56;68.19
10482;BME280;5288;42.334;23.876;2022-12-29T08:59:55;56464.47;;;-140.56;68.98
10482;BME280;5288;42.334;23.876;2022-12-29T09:02:22;56458.53;;;-140.56;68.33
10482;BME280;5288;42.334;23.876;2022-12-29T09:04:49;56444.69;;;-140.56;68.52
10482;BME280;5288;42.334;23.876;2022-12-29T09:07:16;56420.97;;;-140.56;68.37
10482;BME280;5288;42.334;23.876;2022-12-29T09:09:44;56442.72;;;-140.56;68.33
10482;BME280;5288;42.334;23.876;2022-12-29T09:12:11;56452.59;;;-140.56;67.73
10482;BME280;5288;42.334;23.876;2022-12-29T09:14:39;56430.88;;;-140.56;67.03
10482;BME280;5288;42.334;23.876;2022-12-29T09:17:08;56438.78;;;-140.56;66.68
10482;BME280;5288;42.334;23.876;2022-12-29T09:19:52;56436.78;;;-140.56;65.90
10482;BME280;5288;42.334;23.876;2022-12-29T09:22:19;56409.13;;;-140.56;65.26
10482;BME280;5288;42.334;23.876;2022-12-29T09:24:46;56428.88;;;-140.56;64.86
10482;BME280;5288;42.334;23.876;2022-12-29T09:27:13;56424.94;;;-140.56;64.57
10482;BME280;5288;42.334;23.876;2022-12-29T09:29:42;56426.91;;;-140.56;63.76
10482;BME280;5288;42.334;23.876;2022-12-29T09:32:09;56419.00;;;-140.56;63.27
10482;BME280;5288;42.334;23.876;2022-12-29T09:34:35;56417.03;;;-140.56;63.26
10482;BME280;5288;42.334;23.876;2022-12-29T09:37:02;56397.25;;;-140.56;63.19
10482;BME280;5288;42.334;23.876;2022-12-29T09:39:29;56428.88;;;-140.56;63.31
10482;BME280;5288;42.334;23.876;2022-12-29T09:42:01;56411.09;;;-140.56;62.52
10482;BME280;5288;42.334;23.876;2022-12-29T09:44:45;56430.88;;;-140.56;62.84
10482;BME280;5288;42.334;23.876;2022-12-29T09:47:16;56417.03;;;-140.56;62.86
10482;BME280;5288;42.334;23.876;2022-12-29T09:49:46;56409.13;;;-140.56;62.40
10482;BME280;5288;42.334;23.876;2022-12-29T09:52:17;56424.94;;;-140.56;62.05
10482;BME280;5288;42.334;23.876;2022-12-29T09:54:50;56391.34;;;-140.56;61.84
10482;BME280;5288;42.334;23.876;2022-12-29T09:57:22;56426.91;;;-140.56;61.74
10482;BME280;5288;42.334;23.876;2022-12-29T09:59:55;56405.16;;;-140.56;60.90
10482;BME280;5288;42.334;23.876;2022-12-29T10:02:33;56407.16;;;-140.56;60.33
10482;BME280;5288;42.334;23.876;2022-12-29T10:05:03;56369.59;;;-140.56;59.55
10482;BME280;5288;42.334;23.876;2022-12-29T10:07:38;56379.47;;;-140.56;58.77
10482;BME280;5288;42.334;23.876;2022-12-29T10:10:20;56377.50;;;-140.56;59.07
10482;BME280;5288;42.334;23.876;2022-12-29T10:12:56;56403.19;;;-140.56;58.51
10482;BME280;5288;42.334;23.876;2022-12-29T10:15:38;56365.66;;;-140.56;57.79
10482;BME280;5288;42.334;23.876;2022-12-29T10:21:22;56341.94;;;-140.56;56.96
10482;BME280;5288;42.334;23.876;2022-12-29T10:23:54;56322.16;;;-140.56;56.41
10482;BME280;5288;42.334;23.876;2022-12-29T10:26:26;56357.75;;;-140.56;55.64
10482;BME280;5288;42.334;23.876;2022-12-29T10:28:56;56345.88;;;-140.56;54.89
10482;BME280;5288;42.334;23.876;2022-12-29T10:31:30;56328.09;;;-140.56;54.89
10482;BME280;5288;42.334;23.876;2022-12-29T10:34:03;56334.03;;;-140.56;54.44
10482;BME280;5288;42.334;23.876;2022-12-29T10:36:35;56343.91;;;-140.56;54.50
10482;BME280;5288;42.334;23.876;2022-12-29T10:39:12;56347.84;;;-140.56;53.85
10482;BME280;5288;42.334;23.876;2022-12-29T10:41:46;56314.25;;;-140.56;53.41
10482;BME280;5288;42.334;23.876;2022-12-29T10:44:16;56377.50;;;-140.56;53.05
10482;BME280;5288;42.334;23.876;2022-12-29T10:46:53;56339.94;;;-140.56;53.04
10482;BME280;5288;42.334;23.876;2022-12-29T10:49:21;56324.13;;;-140.56;52.76
10482;BME280;5288;42.334;23.876;2022-12-29T10:51:48;56296.47;;;-140.56;51.52
10482;BME280;5288;42.334;23.876;2022-12-29T10:54:21;56272.75;;;-140.56;51.56
10482;BME280;5288;42.334;23.876;2022-12-29T10:56:52;56337.97;;;-140.56;51.25
10482;BME280;5288;42.334;23.876;2022-12-29T10:59:22;56337.97;;;-140.56;51.32
10482;BME280;5288;42.334;23.876;2022-12-29T11:01:58;56339.94;;;-140.56;50.70
10482;BME280;5288;42.334;23.876;2022-12-29T11:04:36;56351.81;;;-140.56;50.52
10482;BME280;5288;42.334;23.876;2022-12-29T11:07:11;56300.44;;;-140.56;50.35
10482;BME280;5288;42.334;23.876;2022-12-29T11:09:39;56292.53;;;-140.56;50.74
10482;BME280;5288;42.334;23.876;2022-12-29T11:12:22;56314.25;;;-140.56;50.91
10482;BME280;5288;42.334;23.876;2022-12-29T11:15:02;56318.22;;;-140.56;50.26
10482;BME280;5288;42.334;23.876;2022-12-29T11:17:45;56359.72;;;-140.56;50.01
10482;BME280;5288;42.334;23.876;2022-12-29T11:20:30;56318.22;;;-140.56;50.27
10482;BME280;5288;42.334;23.876;2022-12-29T11:22:58;56302.41;;;-140.56;50.73
10482;BME280;5288;42.334;23.876;2022-12-29T11:25:25;56314.25;;;-140.56;49.69
10482;BME280;5288;42.334;23.876;2022-12-29T11:27:58;56292.53;;;-140.56;49.18
10482;BME280;5288;42.334;23.876;2022-12-29T11:30:28;56306.34;;;-140.56;49.89
10482;BME280;5288;42.334;23.876;2022-12-29T11:32:57;56310.31;;;-140.56;49.18
10482;BME280;5288;42.334;23.876;2022-12-29T11:35:34;56286.59;;;-140.56;47.91
10482;BME280;5288;42.334;23.876;2022-12-29T11:38:01;56306.34;;;-140.56;47.57
10482;BME280;5288;42.334;23.876;2022-12-29T11:40:29;56312.28;;;-140.56;46.60
10482;BME280;5288;42.334;23.876;2022-12-29T11:42:58;56249.03;;;-140.56;46.59
10482;BME280;5288;42.334;23.876;2022-12-29T11:45:30;56249.03;;;-140.56;44.95
10482;BME280;5288;42.334;23.876;2022-12-29T11:48:05;56266.81;;;-140.56;44.49
10482;BME280;5288;42.334;23.876;2022-12-29T11:50:37;56254.97;;;-140.56;44.65
10482;BME280;5288;42.334;23.876;2022-12-29T11:53:07;56258.94;;;-140.56;43.69
10482;BME280;5288;42.334;23.876;2022-12-29T11:55:50;56260.91;;;-140.56;44.23
10482;BME280;5288;42.334;23.876;2022-12-29T11:58:18;56268.81;;;-140.56;42.77
10482;BME280;5288;42.334;23.876;2022-12-29T12:00:49;56270.78;;;-140.56;41.11
10482;BME280;5288;42.334;23.876;2022-12-29T12:03:21;56215.44;;;-140.56;41.48
10482;BME280;5288;42.334;23.876;2022-12-29T12:05:52;56235.22;;;-140.56;42.83
10482;BME280;5288;42.334;23.876;2022-12-29T12:08:28;56247.06;;;-140.56;42.04
10482;BME280;5288;42.334;23.876;2022-12-29T12:11:06;56243.13;;;-140.56;41.73
10482;BME280;5288;42.334;23.876;2022-12-29T12:13:37;56235.22;;;-140.56;42.37
10482;BME280;5288;42.334;23.876;2022-12-29T12:16:15;56201.63;;;-140.56;42.65
10482;BME280;5288;42.334;23.876;2022-12-29T12:18:51;56223.34;;;-140.56;41.70
10482;BME280;5288;42.334;23.876;2022-12-29T12:21:24;56191.72;;;-140.56;41.15
10482;BME280;5288;42.334;23.876;2022-12-29T12:24:07;56237.19;;;-140.56;40.21
10482;BME280;5288;42.334;23.876;2022-12-29T12:26:46;56229.28;;;-140.56;40.21
10482;BME280;5288;42.334;23.876;2022-12-29T12:29:24;56197.66;;;-140.56;39.55
10482;BME280;5288;42.334;23.876;2022-12-29T12:31:55;56219.41;;;-140.56;39.49
10482;BME280;5288;42.334;23.876;2022-12-29T12:34:32;56189.75;;;-140.56;39.91
10482;BME280;5288;42.334;23.876;2022-12-29T12:37:39;56231.25;;;-140.56;40.08
10482;BME280;5288;42.334;23.876;2022-12-29T12:40:39;56253.00;;;-140.56;40.58
10482;BME280;5288;42.334;23.876;2022-12-29T12:43:27;56237.19;;;-140.56;39.60
10482;BME280;5288;42.334;23.876;2022-12-29T12:46:05;56211.50;;;-140.56;40.48
10482;BME280;5288;42.334;23.876;2022-12-29T12:48:53;56191.72;;;-140.56;40.94
10482;BME280;5288;42.334;23.876;2022-12-29T12:51:33;56245.09;;;-140.56;41.59
10482;BME280;5288;42.334;23.876;2022-12-29T12:54:14;56223.34;;;-140.56;41.33
10482;BME280;5288;42.334;23.876;2022-12-29T12:56:55;56223.34;;;-140.56;41.89
10482;BME280;5288;42.334;23.876;2022-12-29T12:59:40;56239.16;;;-140.56;42.52
10482;BME280;5288;42.334;23.876;2022-12-29T13:02:19;56229.28;;;-140.56;41.72
10482;BME280;5288;42.334;23.876;2022-12-29T13:07:50;56233.22;;;-140.56;42.08
10482;BME280;5288;42.334;23.876;2022-12-29T13:10:41;56258.94;;;-140.56;41.61
10482;BME280;5288;42.334;23.876;2022-12-29T13:13:33;56270.78;;;-140.56;41.63
10482;BME280;5288;42.334;23.876;2022-12-29T13:16:06;56262.88;;;-140.56;41.54